Accueil
METAR-TAF:

METAR-TAF

Aéroports :

Base aérienne de Kleine-Brogel

Peer, Belgique

latitude: 51-10N, longitude: 005-28E, altitude: 55 m

Observation

Le bulletin a été fait il y a 30 minutes, à 18:55 UTC
Vent 4 kt de ouest/nord-ouest
Température 10°C
Humidité 50%
Pression 1018 hPa
Visibilité 10 km ou plus

METAR: EBBL 071855Z AUTO 30004KT 9999 NCD 10/00 Q1018 BLU

Heure: 21:25 (19:25 UTC)

Prévision

Le bulletin a été fait il y a 3 heures et 44 minutes, à 15:41 UTC
Prévision valable du 07 à 19 UTC au 08 à 07 UTC
Vent 5 kt de ouest
Visibilité 10 km ou plus
Quelques nuages à une hauteur de 6000 ft
Evoluant progressivement
du 07 à 23 UTC au 08 à 01 UTC
Vent 8 kt de sud

TAF: EBBL 071541Z 0719/0807 28005KT 9999 FEW060 BECMG 0723/0801 18008KT

Observations et prévisions météorologiques de plus de 4000 aéroports (messages METAR et TAF).

Les stations disponibles sont représentées par des disques jaunes et rouges sur la carte.

Passer la souris dessus pour voir le nom de la station.

Cliquer dessus pour voir les observations et prévisions météorologiques.

Pour changer de carte: cliquez sur les boutons verts avec une croix noire pour zoomer, sur le bouton vert avec un tiret pour effectuer un zoom arrière, ou sur les flèches vertes pour les cartes adjacentes.


METAR-TAF: